Hidden Valley, Valles Caldera, New Mexico Weather observations

Data are for 10 minute period ending at time listed.
 Day   Time   Solar   Ave.   Ave.  Ave.  Vector  Max.   Baro.   Total    
  of    of     Rad.   Air    Rel.  Wind   Wind   Wind  Press.  Precip.   
Year   Day            Temp.  Hum.  Speed  Dir.   Gust                    
2014   (MST)  Kw/m2    F      %     mph   deg.    mph    mb.     in.     
-------------------------------------------------------------------------
 351   15:30   0.06   28.9    95    2.5   212     5.8   740.5    0.00 
 351   15:40   0.05   28.9    96    2.1   198     4.1   740.6    0.01 
 351   15:50   0.03   28.8    95    2.6   190     4.2   740.7    0.00 
 351   16:00   0.03   28.7    96    2.7   186     4.5   740.8    0.01 
 351   16:10   0.04   28.7    95    2.8   189     5.4   740.8    0.00 
 351   16:20   0.04   28.6    95    2.7   184     4.0   740.8    0.00 
 351   16:30   0.02   28.5    96    2.6   194     4.7   740.8    0.01 
 351   16:40   0.01   28.4    96    2.2   183     3.7   740.8    0.00 
 351   16:50   0.00   28.3    97    2.9   192     5.0   740.8    0.00 
 351   17:00   0.00   28.3    97    2.8   205     5.2   740.9    0.00 
 351   17:10   0.00   28.2    98    2.2   184     4.1   741.0    0.01 
 351   17:20   0.00   28.1    97    1.6   199     3.9   741.1    0.00 
 351   17:30   0.00   28.0    97    1.7   190     3.3   741.2    0.00 
 351   17:40   0.00   27.9    98    2.4   186     4.2   741.2    0.00 
 351   17:50   0.00   27.8    98    2.4   184     4.2   741.3    0.00 
 351   18:00   0.00   27.8    98    2.5   189     3.9   741.4    0.01 
 351   18:10   0.00   27.6    98    3.0   194     5.5   741.5    0.00 
 351   18:20   0.00   27.5    97    2.5   199     4.5   741.5    0.00 
 351   18:30   0.00   27.3    97    3.1   200     5.7   741.6    0.00 
 351   18:40   0.00   27.3    97    3.2   201     5.9   741.7    0.00 
 351   18:50   0.00   27.4    96    2.8   210     5.9   741.8    0.00 
 351   19:00   0.00   27.4    95    2.3   206     5.0   741.9    0.00 
 351   19:10   0.00   27.4    96    3.4   197     5.7   742.0    0.00 
 351   19:20   0.00   27.2    97    3.5   205     6.0   741.9    0.00 
 351   19:30   0.00   27.1    97    4.2   208     6.6   741.9    0.00 
 351   19:40   0.00   26.9    97    4.0   212     6.7   741.9    0.00 
 351   19:50   0.00   26.9    97    4.7   206     8.2   742.0    0.00 
 351   20:00   0.00   26.9    96    3.8   202     8.3   742.1    0.01 
 351   20:10   0.00   26.8    96    3.9   193     7.0   742.2    0.00 
 351   20:20   0.00   26.8    96    2.9   205     5.3   742.3    0.00 
 351   20:30   0.00   26.8    94    2.2   253     4.5   742.4    0.00 
 351   20:40   0.00   26.8    93    2.0   238     4.1   742.4    0.00 
 351   20:50   0.00   26.7    93    2.6   223     4.8   742.4    0.00 
 351   21:00   0.00   26.6    95    2.7   212     4.7   742.5    0.00 
 351   21:10   0.00   26.5    95    2.6   209     4.2   742.6    0.00 
 351   21:20   0.00   26.4    95    2.2   226     6.2   742.6    0.00 
 351   21:30   0.00   26.6    94    3.2   214     5.3   742.6    0.00 
 351   21:40   0.00   26.6    94    2.1   217     4.4   742.7    0.00 
 351   21:50   0.00   26.5    94    3.1   209     5.2   742.7    0.00 
 351   22:00   0.00   26.4    94    1.6   220     4.5   742.9    0.00 
 351   22:10   0.00   26.2    94    2.0   207     3.5   742.8    0.00 
 351   22:20   0.00   26.1    93    2.1   217     5.0   742.9    0.00 
 351   22:30   0.00   25.8    92    1.9   207     3.1   743.0    0.00 
 351   22:40   0.00   25.6    90    2.2   193     3.2   743.1    0.01 
 351   22:50   0.00   25.8    90    2.2   234     4.4   743.2    0.00 
 351   23:00   0.00   26.4    88    1.6   226     4.5   743.3    0.00 
 351   23:10   0.00   26.3    88    2.1   228     5.8   743.2    0.00 
 351   23:20   0.00   26.1    87    1.7   262     4.8   743.3    0.00 
 351   23:30   0.00   26.0    88    2.1   265     5.1   743.3    0.00 
 351   23:40   0.00   25.9    87    1.7   279     5.7   743.3    0.00 
 351   23:50   0.00   25.5    86    1.2   248     3.0   743.3    0.00 
 352    0:00   0.00   25.0    86    1.5   231     4.8   743.2    0.00 
 352    0:10   0.00   25.2    82    1.6   273     3.9   743.1    0.00 
 352    0:20   0.00   24.2    85    0.7   347     1.6   743.0    0.00 
 352    0:30   0.00   23.9    90    1.2   233     2.3   743.0    0.00 
 352    0:40   0.00   24.6    90    1.3   199     2.1   743.0    0.00 
 352    0:50   0.00   24.8    90    0.8   178     2.2   742.9    0.00 
 352    1:00   0.00   24.8    87    1.3   233     2.5   742.9    0.00 
 352    1:10   0.00   25.0    86    0.7    78     1.6   743.0    0.00 
 352    1:20   0.00   25.0    86    0.6   230     1.8   743.0    0.00 
 352    1:30   0.00   24.9    88    0.6   234     1.6   743.1    0.00 
 352    1:40   0.00   24.9    88    0.8   224     1.8   743.2    0.00 
 352    1:50   0.00   24.8    88    1.2   199     2.1   743.2    0.00 
 352    2:00   0.00   24.7    89    1.1   178     1.8   743.3    0.00 
 352    2:10   0.00   24.6    90    1.9   207     3.8   743.3    0.00 
 352    2:20   0.00   23.9    91    2.1   211     3.8   743.3    0.00 
 352    2:30   0.00   23.2    91    2.3   222     3.5   743.4    0.00 
 352    2:40   0.00   22.6    92    1.9   226     2.6   743.5    0.00 
 352    2:50   0.00   23.1    88    0.9   244     2.2   743.6    0.00 
 352    3:00   0.00   22.9    89    0.9   282     1.6   743.5    0.00 
 352    3:10   0.00   23.4    88    1.4   235     2.6   743.5    0.00 
 352    3:20   0.00   22.6    89    1.9   228     2.7   743.5    0.00 
 352    3:30   0.00   21.1    92    1.6   210     2.3   743.5    0.00 
 352    3:40   0.00   19.1    93    0.9   159     1.9   743.6    0.00 
 352    3:50   0.00   19.1    96    0.9   181     2.0   743.7    0.00 
 352    4:00   0.00   19.7    95    0.9   217     1.5   743.7    0.00 
 352    4:10   0.00   18.9    93    0.3   117     1.0   743.6    0.00 
 352    4:20   0.00   18.7    94    1.0   197     2.2   743.5    0.00 
 352    4:30   0.00   19.1    95    0.8    94     2.3   743.6    0.00 
 352    4:40   0.00   19.3    94    0.9    14     2.2   743.7    0.00 
 352    4:50   0.00   18.7    93    1.0   267     2.4   743.7    0.00 
 352    5:00   0.00   17.3    91    1.1    16     2.4   743.8    0.00 
 352    5:10   0.00   16.3    91    0.6    92     1.2   743.9    0.00 
 352    5:20   0.00   15.9    93    0.7   162     1.4   743.9    0.00 
 352    5:30   0.00   15.4    93    0.4   102     0.9   744.0    0.00 
 352    5:40   0.00   15.0    94    0.6   120     1.8   744.1    0.00 
 352    5:50   0.00   15.0    96    0.6   202     1.7   744.1    0.00 
 352    6:00   0.00   14.2    93    0.6   177     1.4   744.1    0.00 
 352    6:10   0.00   13.4    94    0.3    36     1.3   744.1    0.00 
 352    6:20   0.00   12.6    93    0.4   287     1.4   744.1    0.00 
 352    6:30   0.00   11.4    93    0.4   137     1.0   744.1    0.00 
 352    6:40   0.00   12.1    95    0.6   285     1.4   744.0    0.00 
 352    6:50   0.00   11.1    93    0.3   275     0.8   744.0    0.00 
 352    7:00   0.74   10.3    93    0.7   178     1.8   744.1    0.00 
 352    7:10   1.09    9.6    92    0.3   174     1.3   744.1    0.00 
 352    7:20   1.19    9.4    92    0.7   320     1.7   744.1    0.00 
 352    7:30   1.09    9.2    94    1.0   149     1.8   744.2    0.00 
 352    7:40   1.12   11.1    94    0.7   187     1.4   744.3    0.00 
 352    7:50   1.14    9.1    90    0.2   330     1.1   744.3    0.00 
 352    8:00   1.22   10.2    93    0.5   143     0.9   744.4    0.00 
 352    8:10   1.24   11.4    91    0.3   296     1.1   744.3    0.00 
 352    8:20   0.79   12.2    90    0.5    36     1.1   744.3    0.00 
 352    8:30   0.75   11.5    89    0.4   285     0.9   744.4    0.00 
 352    8:40   0.73   12.5    90    0.5   169     1.1   744.5    0.00 
 352    8:50   0.23   15.5    90    0.1   169     0.5   744.6    0.00 
 352    9:00   0.27   17.3    83    0.4   100     1.2   744.7    0.00 
 352    9:10   0.28   19.0    79    0.2    76     0.9   744.7    0.00 
 352    9:20   0.23   18.8    76    0.3   208     1.2   744.7    0.00 
 352    9:30   0.25   18.5    78    0.1   225     0.7   744.8    0.00 
 352    9:40   0.33   20.2    76    0.6   172     1.2   744.8    0.00 
 352    9:50   0.39   22.7    74    0.4   175     0.8   744.9    0.00 
 352   10:00   0.41   26.6    67    0.2    39     0.9   744.9    0.00 
 352   10:10   0.39   28.5    62    0.1   250     0.5   745.0    0.00 
 352   10:20   0.45   29.4    60    0.2   198     0.8   744.9    0.01 
 352   10:30   0.53   34.9    52    0.0   121     0.7   744.9    0.00 
 352   10:40   0.59   37.4    45    0.4   172     1.0   744.9    0.01 
 352   10:50   0.34   34.1    49    0.3   153     0.9   744.8    0.00 
 352   11:00   0.26   32.5    52    0.2    86     1.1   744.7    0.01 
 352   11:10   0.30   31.5    54    0.1    48     0.8   744.5    0.00 
 352   11:20   0.53   36.0    46    0.4   207     1.3   744.3    0.01 
 352   11:30   0.43   32.3    51    2.3     8     4.3   744.2    0.01 
 352   11:40   0.38   31.1    53    1.5   358     2.9   744.1    0.00 
 352   11:50   0.34   30.4    55    1.9    46     3.3   744.0    0.00 
 352   12:00   0.48   31.0    53    0.9    61     1.8   743.9    0.01 
 352   12:10   0.51   33.4    49    0.9    61     2.5   743.8    0.00 
 352   12:20   0.44   33.6    48    0.8    33     2.5   743.6    0.01 
 352   12:30   0.34   35.1    45    0.5   178     1.1   743.5    0.00 
 352   12:40   0.46   34.7    46    0.8   164     1.4   743.4    0.00 
 352   12:50   0.35   33.5    48    0.4   115     0.9   743.2    0.01 
 352   13:00   0.29   32.6    50    0.6    49     1.4   743.1    0.00 
 352   13:10   0.28   31.3    55    1.4    47     2.4   743.0    0.00 
 352   13:20   0.24   31.2    55    0.9    70     1.8   742.9    0.01 
 352   13:30   0.19   31.0    58    1.4   144     2.8   742.9    0.00 
 352   13:40   0.16   29.6    66    2.6   191     4.1   742.9    0.00 
 352   13:50   0.14   29.2    69    2.5   190     4.5   742.9    0.00 
 352   14:00   0.13   29.3    69    2.0   171     3.6   742.9    0.00 
 352   14:10   0.15   29.1    69    2.4   191     4.7   742.9    0.00 
 352   14:20   0.14   29.0    72    2.8   194     4.4   742.9    0.00 
 352   14:30   0.11   28.4    73    3.3   190     5.3   742.9    0.00 
 352   14:40   0.10   28.2    74    2.5   187     4.4   742.9    0.00 
 352   14:50   0.10   28.0    75    3.2   200     5.0   743.0    0.00 
 352   15:00   0.12   28.0    77    3.1   165     4.8   743.1    0.00 
 352   15:10   0.11   27.8    78    2.9   150     4.2   743.1    0.00 
 352   15:20   0.06   27.6    79    2.1   160     3.3   743.1    0.00 

Return to Hidden Valley, Valles Caldera graphs page.


Western Regional Climate Center,wrcc@dri.edu